createdAt,value
2019-06-08T00:00:22.610Z,1.37
2019-06-08T00:02:52.030Z,1.70
2019-06-08T00:05:21.331Z,1.50
2019-06-08T00:07:50.595Z,1.70
2019-06-08T00:10:23.628Z,1.55
2019-06-08T00:12:53.165Z,1.40
2019-06-08T00:15:22.494Z,1.32
2019-06-08T00:17:51.745Z,1.77
2019-06-08T00:20:21.866Z,1.75
2019-06-08T00:22:51.296Z,1.90
2019-06-08T00:25:20.970Z,1.67
2019-06-08T00:27:51.565Z,1.92
2019-06-08T00:30:20.870Z,1.67
2019-06-08T00:32:50.238Z,1.70
2019-06-08T00:35:20.761Z,1.70
2019-06-08T00:37:50.166Z,2.25
2019-06-08T00:40:21.141Z,1.82
2019-06-08T00:42:50.572Z,2.35
2019-06-08T00:45:20.390Z,1.70
2019-06-08T00:47:50.918Z,1.75
2019-06-08T00:50:21.015Z,1.90
2019-06-08T00:52:50.360Z,1.95
2019-06-08T00:55:19.656Z,1.60
2019-06-08T00:57:48.928Z,1.75
2019-06-08T01:00:20.418Z,1.55
2019-06-08T01:02:49.858Z,1.95
2019-06-08T01:05:19.899Z,1.72
2019-06-08T01:07:49.278Z,1.80
2019-06-08T01:10:21.303Z,1.80
2019-06-08T01:12:50.600Z,1.77
2019-06-08T01:15:28.889Z,1.70
2019-06-08T01:18:02.187Z,1.70
2019-06-08T01:20:23.468Z,1.40
2019-06-08T01:22:52.798Z,1.50
2019-06-08T01:25:22.094Z,1.60
2019-06-08T01:27:51.367Z,1.77
2019-06-08T01:30:22.223Z,2.05
2019-06-08T01:32:51.586Z,1.80
2019-06-08T01:35:20.962Z,1.85
2019-06-08T01:37:50.264Z,1.60
2019-06-08T01:40:21.216Z,1.77
2019-06-08T01:42:51.113Z,1.85
2019-06-08T01:45:33.161Z,1.85
2019-06-08T01:48:18.895Z,1.65
2019-06-08T01:50:36.528Z,1.57
2019-06-08T01:53:06.796Z,1.98
2019-06-08T01:55:37.148Z,2.00
2019-06-08T01:58:06.428Z,2.00
2019-06-08T02:00:41.169Z,1.60
2019-06-08T02:03:07.078Z,1.98
2019-06-08T02:05:36.340Z,1.60
2019-06-08T02:08:05.816Z,1.40
2019-06-08T02:10:35.092Z,1.65
2019-06-08T02:13:08.271Z,1.95
2019-06-08T02:15:35.496Z,1.40
2019-06-08T02:18:04.839Z,1.87
2019-06-08T02:20:35.389Z,1.80
2019-06-08T02:23:04.838Z,2.00
2019-06-08T02:25:35.567Z,1.80
2019-06-08T02:28:05.112Z,2.00
2019-06-08T02:30:37.218Z,2.12
2019-06-08T02:33:05.684Z,2.20
2019-06-08T02:35:35.917Z,1.80
2019-06-08T02:38:06.122Z,2.05
2019-06-08T02:40:37.017Z,1.70
2019-06-08T02:43:06.629Z,1.90
2019-06-08T02:45:37.028Z,1.70
2019-06-08T02:48:07.055Z,1.85
2019-06-08T02:50:56.672Z,2.10
2019-06-08T02:53:29.073Z,2.10
2019-06-08T02:55:58.476Z,1.90
2019-06-08T02:58:29.240Z,1.70
2019-06-08T03:00:58.708Z,1.62
2019-06-08T03:03:31.598Z,1.42
2019-06-08T03:06:02.875Z,1.70
2019-06-08T03:08:41.459Z,2.00
2019-06-08T03:11:09.989Z,1.60
2019-06-08T03:13:42.430Z,1.75
2019-06-08T03:16:11.442Z,1.62
2019-06-08T03:18:42.606Z,1.98
2019-06-08T03:21:11.712Z,1.90
2019-06-08T03:23:43.275Z,1.85
2019-06-08T03:26:12.085Z,1.75
2019-06-08T03:28:42.315Z,1.98
2019-06-08T03:31:12.457Z,1.92
2019-06-08T03:33:50.750Z,1.90
2019-06-08T03:36:12.782Z,2.12
2019-06-08T03:38:42.931Z,1.90
2019-06-08T03:41:13.101Z,2.25
2019-06-08T03:43:42.513Z,1.75
2019-06-08T03:46:11.849Z,1.70
2019-06-08T03:48:42.171Z,2.10
2019-06-08T03:51:12.173Z,1.92
2019-06-08T03:53:42.596Z,1.47
2019-06-08T03:56:12.599Z,2.00
2019-06-08T03:58:45.162Z,1.75
2019-06-08T04:01:14.435Z,2.08
2019-06-08T04:03:44.068Z,1.98
2019-06-08T04:06:13.812Z,1.90
2019-06-08T04:08:45.375Z,1.87
2019-06-08T04:11:15.066Z,2.22
2019-06-08T04:13:45.124Z,2.12
2019-06-08T04:16:15.383Z,2.02
2019-06-08T04:18:46.818Z,1.82
2019-06-08T04:21:17.341Z,2.15
2019-06-08T04:23:47.283Z,2.10
2019-06-08T04:26:16.618Z,1.85
2019-06-08T04:28:47.243Z,2.42
2019-06-08T04:31:16.872Z,2.08
2019-06-08T04:33:46.649Z,2.25
2019-06-08T04:36:16.137Z,2.17
2019-06-08T04:38:46.201Z,2.20
2019-06-08T04:41:16.415Z,2.45
2019-06-08T04:43:47.366Z,1.80
2019-06-08T04:46:16.667Z,2.35
2019-06-08T04:48:47.982Z,2.10
2019-06-08T04:51:17.046Z,1.72
2019-06-08T04:53:47.215Z,1.90
2019-06-08T04:56:17.080Z,1.90
2019-06-08T04:58:48.349Z,1.90
2019-06-08T05:01:17.353Z,2.08
2019-06-08T05:03:47.801Z,2.00
2019-06-08T05:06:17.605Z,2.08
2019-06-08T05:08:47.415Z,2.10
2019-06-08T05:11:16.726Z,2.30
2019-06-08T05:13:47.608Z,2.08
2019-06-08T05:16:16.988Z,1.92
2019-06-08T05:18:47.339Z,1.85
2019-06-08T05:21:16.810Z,2.10
2019-06-08T05:23:47.882Z,2.30
2019-06-08T05:26:17.083Z,2.00
2019-06-08T05:28:47.379Z,2.15
2019-06-08T05:31:16.769Z,2.40
2019-06-08T05:33:47.483Z,2.10
2019-06-08T05:36:16.897Z,2.30
2019-06-08T05:38:46.165Z,2.40
2019-06-08T05:41:15.457Z,1.98
2019-06-08T05:43:45.621Z,2.15
2019-06-08T05:46:15.011Z,2.30
2019-06-08T05:48:44.296Z,2.85
2019-06-08T05:51:13.572Z,2.05
2019-06-08T05:53:43.815Z,2.30
2019-06-08T05:56:13.252Z,2.30
2019-06-08T05:58:43.876Z,3.00
2019-06-08T06:01:13.253Z,2.80
2019-06-08T06:03:44.572Z,2.35
2019-06-08T06:06:14.027Z,2.52
2019-06-08T06:08:44.442Z,2.60
2019-06-08T06:11:14.095Z,2.85
2019-06-08T06:13:43.387Z,2.67
2019-06-08T06:16:12.673Z,2.62
2019-06-08T06:18:42.937Z,3.00
2019-06-08T06:21:13.774Z,3.15
2019-06-08T06:23:43.187Z,3.45
2019-06-08T06:26:12.634Z,3.87
2019-06-08T06:28:41.936Z,3.95
2019-06-08T06:31:11.229Z,4.00
2019-06-08T06:33:41.869Z,4.80
2019-06-08T06:36:12.374Z,4.90
2019-06-08T06:38:41.956Z,4.80
2019-06-08T06:41:11.247Z,5.03
2019-06-08T06:43:42.129Z,5.08
2019-06-08T06:46:11.607Z,5.05
2019-06-08T06:48:41.997Z,4.50
2019-06-08T06:51:25.230Z,4.92
2019-06-08T06:53:42.802Z,4.35
2019-06-08T06:56:12.244Z,4.40
2019-06-08T06:58:41.564Z,4.42
2019-06-08T07:01:10.869Z,4.62
2019-06-08T07:03:40.164Z,3.95
2019-06-08T07:06:09.427Z,3.90
2019-06-08T07:08:41.918Z,4.28
2019-06-08T07:11:09.709Z,4.10
2019-06-08T07:13:39.009Z,3.98
2019-06-08T07:16:17.793Z,3.90
2019-06-08T07:18:39.302Z,4.22
2019-06-08T07:21:08.575Z,3.22
2019-06-08T07:23:37.872Z,3.98
2019-06-08T07:26:08.070Z,3.52
2019-06-08T07:28:37.337Z,3.50
2019-06-08T07:31:06.620Z,3.00
2019-06-08T07:33:35.903Z,3.30
2019-06-08T07:36:05.201Z,3.60
2019-06-08T07:38:34.479Z,3.80
2019-06-08T07:41:03.762Z,3.60
2019-06-08T07:43:33.064Z,3.20
2019-06-08T07:46:02.350Z,3.60
2019-06-08T07:48:31.655Z,3.30
2019-06-08T07:51:00.951Z,3.20
2019-06-08T07:53:30.242Z,3.37
2019-06-08T07:55:59.829Z,3.10
2019-06-08T07:58:29.231Z,3.00
2019-06-08T08:01:06.699Z,3.67
2019-06-08T08:03:29.497Z,3.50
2019-06-08T08:05:58.768Z,2.70
2019-06-08T08:08:28.075Z,2.98
2019-06-08T08:10:58.647Z,2.90
2019-06-08T08:13:28.282Z,3.10
2019-06-08T08:15:59.321Z,3.20
2019-06-08T08:18:28.551Z,2.90
2019-06-08T08:21:03.008Z,3.10
2019-06-08T08:23:28.819Z,3.35
2019-06-08T08:26:01.368Z,3.15
2019-06-08T08:28:29.084Z,3.00
2019-06-08T08:31:00.366Z,3.10
2019-06-08T08:33:29.344Z,3.30
2019-06-08T08:36:01.456Z,2.95
2019-06-08T08:38:29.630Z,3.58
2019-06-08T08:41:06.170Z,3.40
2019-06-08T08:43:29.964Z,3.05
2019-06-08T08:46:01.817Z,2.80
2019-06-08T08:48:31.713Z,2.60
2019-06-08T08:51:03.516Z,2.95
2019-06-08T08:53:32.248Z,3.10
2019-06-08T08:56:02.592Z,2.60
2019-06-08T08:58:31.994Z,2.85
2019-06-08T09:01:03.503Z,2.87
2019-06-08T09:03:33.727Z,2.98
2019-06-08T09:06:04.677Z,2.98
2019-06-08T09:08:34.191Z,2.60
2019-06-08T09:11:04.266Z,3.20
2019-06-08T09:13:33.689Z,3.10
2019-06-08T09:16:04.229Z,2.85
2019-06-08T09:18:37.349Z,2.92
2019-06-08T09:21:08.122Z,2.75
2019-06-08T09:23:37.856Z,2.47
2019-06-08T09:26:12.178Z,2.80
2019-06-08T09:28:38.856Z,2.70
2019-06-08T09:31:12.854Z,2.33
2019-06-08T09:33:40.676Z,2.47
2019-06-08T09:36:09.957Z,2.50
2019-06-08T09:38:39.251Z,2.75
2019-06-08T09:41:09.092Z,2.80
2019-06-08T09:43:39.579Z,2.60
2019-06-08T09:46:09.453Z,2.55
2019-06-08T09:48:38.991Z,2.55
2019-06-08T09:51:09.327Z,3.08
2019-06-08T09:53:41.628Z,3.08
2019-06-08T09:56:10.372Z,2.92
2019-06-08T09:58:39.857Z,3.05
2019-06-08T10:01:12.344Z,3.00
2019-06-08T10:03:40.175Z,2.77
2019-06-08T10:06:12.329Z,2.83
2019-06-08T10:08:40.443Z,2.67
2019-06-08T10:11:09.951Z,2.90
2019-06-08T10:13:43.133Z,2.80
2019-06-08T10:16:10.899Z,2.60
2019-06-08T10:18:40.440Z,2.70
2019-06-08T10:21:10.009Z,2.87
2019-06-08T10:23:41.793Z,3.15
2019-06-08T10:26:11.308Z,2.80
2019-06-08T10:28:41.616Z,2.70
2019-06-08T10:31:10.896Z,3.12
2019-06-08T10:33:40.540Z,2.60
2019-06-08T10:36:12.839Z,2.87
2019-06-08T10:38:41.535Z,3.05
2019-06-08T10:41:17.845Z,3.10
2019-06-08T10:43:42.000Z,2.83
2019-06-08T10:46:16.542Z,3.12
2019-06-08T10:48:42.254Z,3.17
2019-06-08T10:51:13.115Z,3.22
2019-06-08T10:53:48.370Z,2.90
2019-06-08T10:56:13.650Z,3.45
2019-06-08T10:58:43.020Z,3.50
2019-06-08T11:01:13.246Z,3.72
2019-06-08T11:03:43.040Z,3.20
2019-06-08T11:06:13.890Z,3.27
2019-06-08T11:08:43.343Z,2.90
2019-06-08T11:11:12.659Z,3.20
2019-06-08T11:13:41.955Z,3.05
2019-06-08T11:16:13.445Z,2.87
2019-06-08T11:18:43.746Z,2.60
2019-06-08T11:21:13.202Z,2.80
2019-06-08T11:23:43.899Z,2.90
2019-06-08T11:26:19.706Z,3.50
2019-06-08T11:28:44.248Z,4.40
2019-06-08T11:31:15.943Z,4.10
2019-06-08T11:33:44.591Z,3.95
2019-06-08T11:36:14.982Z,3.80
2019-06-08T11:38:44.329Z,3.52
2019-06-08T11:41:13.896Z,3.90
2019-06-08T11:43:44.197Z,4.22
2019-06-08T11:46:13.508Z,4.30
2019-06-08T11:48:42.791Z,3.58
2019-06-08T11:51:13.194Z,3.33
2019-06-08T11:53:42.672Z,3.30
2019-06-08T11:56:13.523Z,3.42
2019-06-08T11:58:43.245Z,3.70
2019-06-08T12:01:15.457Z,3.67
2019-06-08T12:03:45.084Z,3.70
2019-06-08T12:06:14.696Z,3.58
2019-06-08T12:08:44.122Z,3.15
2019-06-08T12:11:18.062Z,3.30
2019-06-08T12:13:44.535Z,2.90
2019-06-08T12:16:15.717Z,3.00
2019-06-08T12:18:44.837Z,3.08
2019-06-08T12:21:14.631Z,3.15
2019-06-08T12:23:44.220Z,4.10
2019-06-08T12:26:14.500Z,4.28
2019-06-08T12:28:44.021Z,4.10
2019-06-08T12:31:21.455Z,4.22
2019-06-08T12:33:48.751Z,3.92
2019-06-08T12:36:20.543Z,3.87
2019-06-08T12:38:49.386Z,3.47
2019-06-08T12:41:19.395Z,2.75
2019-06-08T12:43:48.926Z,3.15
2019-06-08T12:46:19.816Z,2.62
2019-06-08T12:48:49.908Z,2.67
2019-06-08T12:51:21.094Z,2.50
2019-06-08T12:53:50.191Z,2.58
2019-06-08T12:56:23.921Z,2.90
2019-06-08T12:58:51.229Z,3.23
2019-06-08T13:01:20.505Z,2.98
2019-06-08T13:03:49.810Z,2.90
2019-06-08T13:06:20.055Z,2.70
2019-06-08T13:08:50.324Z,3.20
2019-06-08T13:11:21.231Z,3.00
2019-06-08T13:13:50.680Z,2.60
2019-06-08T13:16:24.313Z,2.80
2019-06-08T13:18:51.181Z,3.20
2019-06-08T13:21:33.281Z,4.25
2019-06-08T13:23:51.452Z,3.87
2019-06-08T13:26:27.507Z,3.75
2019-06-08T13:28:51.716Z,4.12
2019-06-08T13:31:24.503Z,4.40
2019-06-08T13:33:53.057Z,3.42
2019-06-08T13:36:26.277Z,4.20
2019-06-08T13:38:53.320Z,3.80
2019-06-08T13:41:25.943Z,4.00
2019-06-08T13:43:55.060Z,3.77
2019-06-08T13:46:24.345Z,4.20
2019-06-08T13:48:53.635Z,3.55
2019-06-08T13:51:24.164Z,3.60
2019-06-08T13:53:53.644Z,4.20
2019-06-08T13:56:24.057Z,3.40
2019-06-08T13:58:53.527Z,3.90
2019-06-08T14:01:23.837Z,3.95
2019-06-08T14:03:54.025Z,3.60
2019-06-08T14:06:23.746Z,4.15
2019-06-08T14:08:54.266Z,3.85
2019-06-08T14:11:24.078Z,4.00
2019-06-08T14:13:54.690Z,3.50
2019-06-08T14:16:25.307Z,3.30
2019-06-08T14:18:54.977Z,3.62
2019-06-08T14:21:31.932Z,3.60
2019-06-08T14:23:55.243Z,3.35
2019-06-08T14:26:25.898Z,3.30
2019-06-08T14:28:55.323Z,3.20
2019-06-08T14:31:29.126Z,3.00
2019-06-08T14:33:56.681Z,3.10
2019-06-08T14:36:28.671Z,3.40
2019-06-08T14:39:01.986Z,2.95
2019-06-08T14:41:31.174Z,3.25
2019-06-08T14:43:58.981Z,3.08
2019-06-08T14:46:28.807Z,3.00
2019-06-08T14:48:59.492Z,2.92
2019-06-08T14:51:47.763Z,2.80
2019-06-08T14:54:22.480Z,3.00
2019-06-08T14:56:49.564Z,2.75
2019-06-08T14:59:21.458Z,2.80
2019-06-08T15:01:49.834Z,2.42
2019-06-08T15:04:23.182Z,2.45
2019-06-08T15:06:50.111Z,2.87
2019-06-08T15:09:21.359Z,2.50
2019-06-08T15:11:50.735Z,2.30
2019-06-08T15:14:20.045Z,2.25
2019-06-08T15:16:49.547Z,2.20
2019-06-08T15:19:20.100Z,2.55
2019-06-08T15:21:49.536Z,2.55
2019-06-08T15:24:18.834Z,2.33
2019-06-08T15:26:48.767Z,2.55
2019-06-08T15:29:18.400Z,2.30
2019-06-08T15:31:48.426Z,2.77
2019-06-08T15:34:18.402Z,2.92
2019-06-08T15:36:47.781Z,2.92
2019-06-08T15:39:17.950Z,2.20
2019-06-08T15:41:48.726Z,2.85
2019-06-08T15:44:21.295Z,2.37
2019-06-08T15:46:49.287Z,2.50
2019-06-08T15:49:18.784Z,2.45
2019-06-08T15:51:49.140Z,2.35
2019-06-08T15:54:18.436Z,2.45
2019-06-08T15:56:51.901Z,2.20
2019-06-08T15:59:18.696Z,2.80
2019-06-08T16:01:47.987Z,2.30
2019-06-08T16:04:17.483Z,2.20
2019-06-08T16:06:46.803Z,2.67
2019-06-08T16:09:16.140Z,2.10
2019-06-08T16:11:45.805Z,1.90
2019-06-08T16:14:15.111Z,1.70
2019-06-08T16:16:44.415Z,1.67
2019-06-08T16:19:13.726Z,2.08
2019-06-08T16:21:43.035Z,2.47
2019-06-08T16:24:12.337Z,2.02
2019-06-08T16:26:52.698Z,2.45
2019-06-08T16:29:12.606Z,2.05
2019-06-08T16:31:41.919Z,2.30
2019-06-08T16:34:11.254Z,2.15
2019-06-08T16:36:40.560Z,1.82
2019-06-08T16:39:09.841Z,2.00
2019-06-08T16:41:40.255Z,2.47
2019-06-08T16:44:10.015Z,2.12
2019-06-08T16:46:39.301Z,1.90
2019-06-08T16:49:08.601Z,2.17
2019-06-08T16:51:37.908Z,2.30
2019-06-08T16:54:07.230Z,2.20
2019-06-08T16:56:36.706Z,2.10
2019-06-08T16:59:06.168Z,2.17
2019-06-08T17:01:36.906Z,2.10
2019-06-08T17:04:06.206Z,1.90
2019-06-08T17:06:35.527Z,1.87
2019-06-08T17:09:07.037Z,2.00
2019-06-08T17:11:36.336Z,2.17
2019-06-08T17:14:05.855Z,2.00
2019-06-08T17:16:36.361Z,2.30
2019-06-08T17:19:05.935Z,1.90
2019-06-08T17:21:36.275Z,1.90
2019-06-08T17:24:05.682Z,1.70
2019-06-08T17:26:35.034Z,1.80
2019-06-08T17:29:04.361Z,1.57
2019-06-08T17:31:35.137Z,1.40
2019-06-08T17:34:04.638Z,1.95
2019-06-08T17:36:34.551Z,1.77
2019-06-08T17:39:05.210Z,1.77
2019-06-08T17:41:36.086Z,1.87
2019-06-08T17:44:05.364Z,2.00
2019-06-08T17:46:34.673Z,1.90
2019-06-08T17:49:03.949Z,1.70
2019-06-08T17:51:33.278Z,1.60
2019-06-08T17:54:02.931Z,1.82
2019-06-08T17:56:32.978Z,1.80
2019-06-08T17:59:02.289Z,1.87
2019-06-08T18:01:33.884Z,1.80
2019-06-08T18:04:02.822Z,1.80
2019-06-08T18:06:32.120Z,1.92
2019-06-08T18:09:01.421Z,2.20
2019-06-08T18:11:32.332Z,2.05
2019-06-08T18:14:01.660Z,2.00
2019-06-08T18:16:30.950Z,1.98
2019-06-08T18:19:00.250Z,2.05
2019-06-08T18:21:29.568Z,1.87
2019-06-08T18:23:58.888Z,2.10
2019-06-08T18:26:28.226Z,1.90
2019-06-08T18:28:59.194Z,2.05
2019-06-08T18:31:28.525Z,1.82
2019-06-08T18:33:59.858Z,1.90
2019-06-08T18:36:28.904Z,2.08
2019-06-08T18:38:58.285Z,2.35
2019-06-08T18:41:27.572Z,2.08
2019-06-08T18:43:58.351Z,1.70
2019-06-08T18:46:27.768Z,1.85
2019-06-08T18:48:57.891Z,2.00
2019-06-08T18:51:28.061Z,2.85
2019-06-08T18:54:08.479Z,1.92
2019-06-08T18:56:28.615Z,1.80
2019-06-08T18:58:58.314Z,1.82
2019-06-08T19:01:27.985Z,1.80
2019-06-08T19:03:57.872Z,1.70
2019-06-08T19:06:27.831Z,2.17
2019-06-08T19:08:58.413Z,2.15
2019-06-08T19:11:28.595Z,2.10
2019-06-08T19:13:58.175Z,1.82
2019-06-08T19:16:28.336Z,2.12
2019-06-08T19:18:58.254Z,2.10
2019-06-08T19:21:28.280Z,2.17
2019-06-08T19:23:58.815Z,1.77
2019-06-08T19:26:28.340Z,2.30
2019-06-08T19:28:58.820Z,1.90
2019-06-08T19:31:28.114Z,1.95
2019-06-08T19:33:58.086Z,1.70
2019-06-08T19:36:28.465Z,1.70
2019-06-08T19:38:58.677Z,1.75
2019-06-08T19:41:28.423Z,1.80
2019-06-08T19:43:59.247Z,2.05
2019-06-08T19:46:28.651Z,1.65
2019-06-08T19:48:58.938Z,1.90
2019-06-08T19:51:28.677Z,1.65
2019-06-08T19:53:58.471Z,2.10
2019-06-08T19:56:29.424Z,2.00
2019-06-08T19:59:03.977Z,1.95
2019-06-08T20:01:29.769Z,2.00
2019-06-08T20:04:01.231Z,1.95
2019-06-08T20:06:30.059Z,1.82
2019-06-08T20:08:59.438Z,1.77
2019-06-08T20:11:29.395Z,2.10
2019-06-08T20:13:58.800Z,2.42
2019-06-08T20:16:28.083Z,2.10
2019-06-08T20:18:58.644Z,2.10
2019-06-08T20:21:28.044Z,1.90
2019-06-08T20:23:58.467Z,2.27
2019-06-08T20:26:29.105Z,1.90
2019-06-08T20:29:12.148Z,2.15
2019-06-08T20:31:30.811Z,1.75
2019-06-08T20:34:00.094Z,1.90
2019-06-08T20:36:29.386Z,1.80
2019-06-08T20:38:58.745Z,1.80
2019-06-08T20:41:28.013Z,2.17
2019-06-08T20:43:57.974Z,2.50
2019-06-08T20:46:28.551Z,2.10
2019-06-08T20:48:58.244Z,2.40
2019-06-08T20:51:27.945Z,2.02
2019-06-08T20:53:57.488Z,2.08
2019-06-08T20:56:28.105Z,1.95
2019-06-08T20:58:59.030Z,2.10
2019-06-08T21:01:28.326Z,2.40
2019-06-08T21:03:57.824Z,2.45
2019-06-08T21:06:27.992Z,2.27
2019-06-08T21:08:57.985Z,2.52
2019-06-08T21:11:28.407Z,2.58
2019-06-08T21:13:57.718Z,2.98
2019-06-08T21:16:27.730Z,2.10
2019-06-08T21:18:57.959Z,2.50
2019-06-08T21:21:28.991Z,2.45
2019-06-08T21:24:01.063Z,2.08
2019-06-08T21:26:52.242Z,2.17
2019-06-08T21:29:19.375Z,2.00
2019-06-08T21:31:51.508Z,2.40
2019-06-08T21:34:19.676Z,2.30
2019-06-08T21:36:49.808Z,2.17
2019-06-08T21:39:20.906Z,2.50
2019-06-08T21:41:54.445Z,2.90
2019-06-08T21:44:21.169Z,2.95
2019-06-08T21:46:51.753Z,2.30
2019-06-08T21:49:21.445Z,2.30
2019-06-08T21:51:51.940Z,2.45
2019-06-08T21:54:21.684Z,2.27
2019-06-08T21:56:52.138Z,2.70
2019-06-08T21:59:21.959Z,2.87
2019-06-08T22:01:53.024Z,2.30
2019-06-08T22:04:22.210Z,2.72
2019-06-08T22:06:51.997Z,2.80
2019-06-08T22:09:21.285Z,3.00
2019-06-08T22:11:51.417Z,2.90
2019-06-08T22:14:21.662Z,2.75
2019-06-08T22:16:52.492Z,2.87
2019-06-08T22:19:21.837Z,2.67
2019-06-08T22:21:52.540Z,2.72
2019-06-08T22:24:22.108Z,2.80
2019-06-08T22:26:52.651Z,2.83
2019-06-08T22:29:22.376Z,2.65
2019-06-08T22:31:52.631Z,2.60
2019-06-08T22:34:22.626Z,2.85
2019-06-08T22:36:53.071Z,3.10
2019-06-08T22:39:22.982Z,2.83
2019-06-08T22:41:53.374Z,2.72
2019-06-08T22:44:22.727Z,2.77
2019-06-08T22:46:53.812Z,2.58
2019-06-08T22:49:22.955Z,2.90
2019-06-08T22:51:53.408Z,2.90
2019-06-08T22:54:23.090Z,2.95
2019-06-08T22:56:53.784Z,3.00
2019-06-08T22:59:23.454Z,3.27
2019-06-08T23:01:53.378Z,3.10
2019-06-08T23:04:24.124Z,3.00
2019-06-08T23:06:54.794Z,3.10
2019-06-08T23:09:24.413Z,2.72
2019-06-08T23:11:55.135Z,3.02
2019-06-08T23:14:25.308Z,3.17
2019-06-08T23:16:54.599Z,2.75
2019-06-08T23:19:26.356Z,3.25
2019-06-08T23:21:55.291Z,2.95
2019-06-08T23:24:24.602Z,3.10
2019-06-08T23:26:53.905Z,2.95
2019-06-08T23:29:23.205Z,2.80
2019-06-08T23:31:52.488Z,2.98
2019-06-08T23:34:23.332Z,3.25
2019-06-08T23:36:59.125Z,2.80
2019-06-08T23:39:23.738Z,3.00
2019-06-08T23:41:53.032Z,3.52
2019-06-08T23:44:22.298Z,3.30
2019-06-08T23:46:51.584Z,3.20
2019-06-08T23:49:20.887Z,2.87
2019-06-08T23:51:50.168Z,3.22
2019-06-08T23:54:19.474Z,3.22
2019-06-08T23:56:48.886Z,3.20
2019-06-08T23:59:18.172Z,3.37
